createdAt,value
2018-02-12T00:00:22.790Z,16.10
2018-02-12T00:00:58.085Z,17.10
2018-02-12T00:01:33.312Z,17.20
2018-02-12T00:02:08.719Z,17.20
2018-02-12T00:02:44.130Z,16.50
2018-02-12T00:03:19.324Z,16.10
2018-02-12T00:03:54.845Z,16.50
2018-02-12T00:04:30.228Z,16.60
2018-02-12T00:05:05.868Z,16.90
2018-02-12T00:05:41.151Z,17.60
2018-02-12T00:06:16.265Z,18.10
2018-02-12T00:06:51.772Z,17.70
2018-02-12T00:07:26.984Z,17.40
2018-02-12T00:08:02.063Z,18.60
2018-02-12T00:08:37.585Z,18.60
2018-02-12T00:09:13.276Z,18.50
2018-02-12T00:09:48.600Z,18.30
2018-02-12T00:10:23.880Z,18.20
2018-02-12T00:10:59.386Z,18.20
2018-02-12T00:11:34.973Z,18.50
2018-02-12T00:12:10.012Z,18.00
2018-02-12T00:12:45.194Z,17.90
2018-02-12T00:13:20.304Z,18.50
2018-02-12T00:13:55.677Z,18.70
2018-02-12T00:14:31.191Z,18.40
2018-02-12T00:15:06.285Z,18.30
2018-02-12T00:15:41.505Z,19.70
2018-02-12T00:16:16.794Z,20.20
2018-02-12T00:16:52.339Z,19.20
2018-02-12T00:17:27.431Z,19.80
2018-02-12T00:18:02.752Z,20.30
2018-02-12T00:18:38.051Z,19.50
2018-02-12T00:19:13.487Z,19.50
2018-02-12T00:19:48.764Z,19.80
2018-02-12T00:20:23.978Z,20.10
2018-02-12T00:21:01.369Z,19.00
2018-02-12T00:21:36.886Z,19.10
2018-02-12T00:22:12.205Z,19.40
2018-02-12T00:22:47.331Z,19.50
2018-02-12T00:23:22.721Z,19.20
2018-02-12T00:23:58.143Z,19.30
2018-02-12T00:24:33.437Z,19.40
2018-02-12T00:25:09.057Z,18.90
2018-02-12T00:25:46.553Z,18.60
2018-02-12T00:26:21.878Z,19.00
2018-02-12T00:26:57.292Z,18.70
2018-02-12T00:27:32.516Z,19.10
2018-02-12T00:28:07.907Z,19.20
2018-02-12T00:28:43.427Z,18.70
2018-02-12T00:29:18.722Z,18.10
2018-02-12T00:29:54.038Z,19.40
2018-02-12T00:30:29.335Z,19.50
2018-02-12T00:31:04.756Z,18.80
2018-02-12T00:31:40.639Z,18.70
2018-02-12T00:32:16.080Z,19.20
2018-02-12T00:32:51.387Z,18.70
2018-02-12T00:33:26.511Z,18.10
2018-02-12T00:34:01.904Z,18.70
2018-02-12T00:34:37.232Z,18.60
2018-02-12T00:35:12.423Z,18.20
2018-02-12T00:35:48.034Z,18.70
2018-02-12T00:36:23.230Z,18.10
2018-02-12T00:36:58.349Z,17.90
2018-02-12T00:37:33.764Z,18.40
2018-02-12T00:38:08.979Z,18.60
2018-02-12T00:38:44.882Z,18.50
2018-02-12T00:39:20.401Z,18.30
2018-02-12T00:39:55.698Z,18.40
2018-02-12T00:40:30.721Z,17.60
2018-02-12T00:41:05.908Z,17.60
2018-02-12T00:41:41.237Z,17.90
2018-02-12T00:42:16.547Z,18.10
2018-02-12T00:42:51.967Z,18.70
2018-02-12T00:43:27.062Z,18.70
2018-02-12T00:44:02.373Z,18.40
2018-02-12T00:44:37.666Z,18.00
2018-02-12T00:45:13.081Z,18.00
2018-02-12T00:45:49.681Z,18.90
2018-02-12T00:46:25.094Z,18.80
2018-02-12T00:47:00.292Z,18.40
2018-02-12T00:47:36.142Z,18.80
2018-02-12T00:48:11.534Z,18.70
2018-02-12T00:48:47.149Z,18.30
2018-02-12T00:49:22.343Z,18.80
2018-02-12T00:49:57.665Z,20.00
2018-02-12T00:50:33.756Z,19.50
2018-02-12T00:51:09.472Z,19.10
2018-02-12T00:51:44.472Z,19.70
2018-02-12T00:52:19.715Z,19.50
2018-02-12T00:52:55.007Z,19.70
2018-02-12T00:53:30.525Z,19.80
2018-02-12T00:54:05.925Z,20.90
2018-02-12T00:54:41.336Z,20.80
2018-02-12T00:55:16.424Z,20.00
2018-02-12T00:55:51.944Z,20.20
2018-02-12T00:56:27.338Z,19.70
2018-02-12T00:57:02.563Z,19.50
2018-02-12T00:57:37.789Z,19.90
2018-02-12T00:58:13.023Z,19.90
2018-02-12T00:58:48.306Z,21.10
2018-02-12T00:59:23.632Z,20.60
2018-02-12T00:59:58.929Z,20.30
2018-02-12T01:00:34.758Z,20.00
2018-02-12T01:01:11.850Z,20.80
2018-02-12T01:01:46.963Z,21.10
2018-02-12T01:02:22.385Z,20.10
2018-02-12T01:02:58.202Z,20.70
2018-02-12T01:03:33.492Z,20.60
2018-02-12T01:04:08.943Z,20.70
2018-02-12T01:04:44.343Z,20.60
2018-02-12T01:05:19.679Z,20.90
2018-02-12T01:05:54.971Z,20.40
2018-02-12T01:06:30.395Z,20.20
2018-02-12T01:07:06.087Z,20.70
2018-02-12T01:07:42.337Z,21.20
2018-02-12T01:08:17.621Z,20.30
2018-02-12T01:08:53.045Z,19.90
2018-02-12T01:09:28.744Z,20.40
2018-02-12T01:10:04.067Z,19.90
2018-02-12T01:10:39.360Z,20.90
2018-02-12T01:11:14.785Z,20.40
2018-02-12T01:11:50.580Z,20.70
2018-02-12T01:12:25.827Z,20.20
2018-02-12T01:13:01.418Z,18.90
2018-02-12T01:13:36.651Z,19.10
2018-02-12T01:14:11.840Z,19.40
2018-02-12T01:14:47.272Z,20.20
2018-02-12T01:15:22.758Z,20.80
2018-02-12T01:15:58.200Z,20.20
2018-02-12T01:16:33.681Z,19.90
2018-02-12T01:17:08.877Z,20.30
2018-02-12T01:17:44.298Z,20.00
2018-02-12T01:18:19.691Z,19.80
2018-02-12T01:18:55.188Z,19.80
2018-02-12T01:19:30.399Z,19.70
2018-02-12T01:20:05.993Z,19.40
2018-02-12T01:20:42.599Z,19.40
2018-02-12T01:21:18.175Z,19.70
2018-02-12T01:21:53.502Z,19.30
2018-02-12T01:22:28.658Z,19.70
2018-02-12T01:23:05.376Z,19.30
2018-02-12T01:23:41.575Z,19.20
2018-02-12T01:24:16.784Z,19.60
2018-02-12T01:24:52.079Z,20.40
2018-02-12T01:25:28.350Z,18.90
2018-02-12T01:26:04.257Z,19.10
2018-02-12T01:26:39.588Z,19.20
2018-02-12T01:27:14.868Z,20.40
2018-02-12T01:27:50.285Z,20.60
2018-02-12T01:28:25.460Z,19.50
2018-02-12T01:29:00.871Z,19.10
2018-02-12T01:29:36.053Z,19.60
2018-02-12T01:30:11.257Z,19.30
2018-02-12T01:30:50.746Z,18.90
2018-02-12T01:31:25.972Z,20.30
2018-02-12T01:32:01.332Z,21.40
2018-02-12T01:32:37.143Z,20.60
2018-02-12T01:33:12.445Z,20.00
2018-02-12T01:33:47.748Z,19.30
2018-02-12T01:34:23.131Z,19.40
2018-02-12T01:34:58.432Z,20.40
2018-02-12T01:35:33.996Z,19.80
2018-02-12T01:36:09.407Z,19.60
2018-02-12T01:36:44.575Z,19.90
2018-02-12T01:37:20.165Z,19.30
2018-02-12T01:37:55.258Z,18.70
2018-02-12T01:38:30.855Z,18.40
2018-02-12T01:39:06.232Z,17.70
2018-02-12T01:39:41.439Z,18.40
2018-02-12T01:40:16.904Z,18.10
2018-02-12T01:40:52.393Z,18.10
2018-02-12T01:41:27.660Z,17.50
2018-02-12T01:42:02.851Z,18.20
2018-02-12T01:42:38.420Z,18.30
2018-02-12T01:43:13.730Z,17.90
2018-02-12T01:43:48.903Z,17.50
2018-02-12T01:44:24.398Z,17.60
2018-02-12T01:44:59.764Z,17.90
2018-02-12T01:45:35.473Z,17.50
2018-02-12T01:46:10.745Z,16.70
2018-02-12T01:46:45.945Z,17.00
2018-02-12T01:47:21.218Z,16.90
2018-02-12T01:47:56.844Z,16.20
2018-02-12T01:48:32.112Z,17.10
2018-02-12T01:49:07.514Z,17.90
2018-02-12T01:49:42.895Z,17.80
2018-02-12T01:50:18.302Z,17.00
2018-02-12T01:50:54.589Z,16.70
2018-02-12T01:51:29.998Z,16.60
2018-02-12T01:52:05.382Z,16.70
2018-02-12T01:52:41.173Z,16.40
2018-02-12T01:53:16.575Z,17.40
2018-02-12T01:53:51.977Z,17.10
2018-02-12T01:54:27.055Z,18.10
2018-02-12T01:55:02.552Z,18.70
2018-02-12T01:55:38.334Z,17.30
2018-02-12T01:56:13.750Z,17.30
2018-02-12T01:56:49.032Z,18.10
2018-02-12T01:57:24.249Z,18.60
2018-02-12T01:57:59.568Z,19.50
2018-02-12T01:58:35.084Z,19.60
2018-02-12T01:59:10.574Z,18.80
2018-02-12T01:59:46.167Z,19.30
2018-02-12T02:00:21.658Z,20.10
2018-02-12T02:01:00.675Z,19.30
2018-02-12T02:01:35.873Z,18.90
2018-02-12T02:02:10.982Z,18.30
2018-02-12T02:02:46.578Z,19.30
2018-02-12T02:03:22.730Z,19.50
2018-02-12T02:03:58.804Z,19.40
2018-02-12T02:04:34.326Z,19.20
2018-02-12T02:05:09.989Z,19.20
2018-02-12T02:05:46.511Z,19.10
2018-02-12T02:06:21.991Z,19.40
2018-02-12T02:06:57.491Z,20.20
2018-02-12T02:07:32.764Z,20.10
2018-02-12T02:08:08.180Z,19.00
2018-02-12T02:08:43.553Z,18.70
2018-02-12T02:09:19.063Z,19.80
2018-02-12T02:09:54.537Z,19.70
2018-02-12T02:10:29.536Z,19.60
2018-02-12T02:11:05.210Z,18.90
2018-02-12T02:11:40.713Z,18.50
2018-02-12T02:12:16.179Z,20.30
2018-02-12T02:12:58.085Z,20.00
2018-02-12T02:13:33.271Z,20.20
2018-02-12T02:14:08.465Z,20.30
2018-02-12T02:14:43.734Z,19.70
2018-02-12T02:15:19.130Z,19.20
2018-02-12T02:15:55.508Z,19.10
2018-02-12T02:16:30.704Z,18.70
2018-02-12T02:17:05.970Z,19.30
2018-02-12T02:17:41.365Z,18.30
2018-02-12T02:18:16.768Z,18.30
2018-02-12T02:18:52.271Z,18.90
2018-02-12T02:19:27.540Z,20.10
2018-02-12T02:20:02.842Z,19.70
2018-02-12T02:20:39.707Z,19.90
2018-02-12T02:21:15.010Z,18.80
2018-02-12T02:21:50.375Z,19.00
2018-02-12T02:22:25.985Z,18.80
2018-02-12T02:23:01.257Z,19.50
2018-02-12T02:23:36.786Z,19.60
2018-02-12T02:24:12.061Z,18.80
2018-02-12T02:24:47.510Z,20.00
2018-02-12T02:25:22.726Z,20.60
2018-02-12T02:25:59.416Z,19.20
2018-02-12T02:26:34.886Z,18.80
2018-02-12T02:27:10.583Z,19.30
2018-02-12T02:27:46.059Z,20.00
2018-02-12T02:28:21.399Z,19.80
2018-02-12T02:28:56.663Z,19.90
2018-02-12T02:29:31.960Z,21.10
2018-02-12T02:30:07.228Z,20.50
2018-02-12T02:30:45.823Z,19.40
2018-02-12T02:31:21.188Z,20.50
2018-02-12T02:31:56.388Z,19.80
2018-02-12T02:32:31.556Z,20.70
2018-02-12T02:33:06.749Z,20.80
2018-02-12T02:33:42.451Z,20.50
2018-02-12T02:34:17.737Z,20.80
2018-02-12T02:34:53.007Z,21.20
2018-02-12T02:35:28.403Z,20.60
2018-02-12T02:36:03.975Z,20.30
2018-02-12T02:36:39.473Z,20.90
2018-02-12T02:37:15.843Z,21.60
2018-02-12T02:37:51.340Z,21.20
2018-02-12T02:38:26.909Z,20.20
2018-02-12T02:39:02.443Z,19.80
2018-02-12T02:39:37.711Z,20.60
2018-02-12T02:40:13.009Z,20.60
2018-02-12T02:40:50.786Z,20.90
2018-02-12T02:41:26.382Z,20.40
2018-02-12T02:42:01.556Z,21.10
2018-02-12T02:42:37.556Z,21.30
2018-02-12T02:43:12.925Z,20.00
2018-02-12T02:43:48.047Z,19.80
2018-02-12T02:44:23.414Z,20.90
2018-02-12T02:44:58.517Z,20.20
2018-02-12T02:45:33.877Z,20.70
2018-02-12T02:46:09.067Z,20.00
2018-02-12T02:46:44.339Z,20.60
2018-02-12T02:47:19.836Z,20.80
2018-02-12T02:47:55.126Z,21.20
2018-02-12T02:48:30.521Z,22.50
2018-02-12T02:49:05.738Z,21.80
2018-02-12T02:49:41.124Z,21.20
2018-02-12T02:50:16.700Z,21.50
2018-02-12T02:50:52.300Z,21.90
2018-02-12T02:51:27.767Z,21.40
2018-02-12T02:52:03.156Z,20.20
2018-02-12T02:52:38.628Z,21.00
2018-02-12T02:53:14.133Z,21.40
2018-02-12T02:53:49.319Z,21.20
2018-02-12T02:54:24.617Z,21.60
2018-02-12T02:54:59.687Z,21.80
2018-02-12T02:55:34.990Z,21.30
2018-02-12T02:56:10.361Z,20.50
2018-02-12T02:56:45.758Z,22.30
2018-02-12T02:57:21.329Z,22.40
2018-02-12T02:57:56.521Z,21.00
2018-02-12T02:58:32.095Z,20.90
2018-02-12T02:59:07.611Z,21.50
2018-02-12T02:59:42.883Z,21.70
2018-02-12T03:00:17.978Z,21.30
2018-02-12T03:00:54.952Z,21.80
2018-02-12T03:01:30.246Z,22.60
2018-02-12T03:02:05.810Z,23.00
2018-02-12T03:02:41.206Z,23.20
2018-02-12T03:03:16.385Z,22.90
2018-02-12T03:03:51.802Z,22.20
2018-02-12T03:04:27.273Z,21.90
2018-02-12T03:05:02.466Z,22.00
2018-02-12T03:05:38.033Z,22.50
2018-02-12T03:06:13.430Z,21.00
2018-02-12T03:06:49.198Z,19.80
2018-02-12T03:07:24.796Z,20.10
2018-02-12T03:08:00.170Z,20.30
2018-02-12T03:08:35.365Z,20.60
2018-02-12T03:09:10.662Z,20.80
2018-02-12T03:09:46.161Z,21.00
2018-02-12T03:10:21.644Z,21.50
2018-02-12T03:10:58.930Z,21.10
2018-02-12T03:11:34.194Z,20.60
2018-02-12T03:12:09.688Z,21.50
2018-02-12T03:12:45.469Z,21.30
2018-02-12T03:13:20.963Z,22.30
2018-02-12T03:13:56.276Z,21.50
2018-02-12T03:14:31.886Z,21.10
2018-02-12T03:15:07.067Z,20.40
2018-02-12T03:15:43.975Z,21.70
2018-02-12T03:16:19.152Z,22.30
2018-02-12T03:16:54.761Z,22.00
2018-02-12T03:17:30.242Z,22.20
2018-02-12T03:18:05.957Z,22.80
2018-02-12T03:18:41.626Z,21.70
2018-02-12T03:19:16.957Z,21.90
2018-02-12T03:19:52.243Z,22.20
2018-02-12T03:20:27.861Z,21.50
2018-02-12T03:21:03.240Z,21.00
2018-02-12T03:21:39.045Z,22.10
2018-02-12T03:22:14.330Z,21.20
2018-02-12T03:22:49.834Z,21.20
2018-02-12T03:23:25.024Z,21.70
2018-02-12T03:24:00.652Z,21.80
2018-02-12T03:24:36.034Z,21.80
2018-02-12T03:25:15.447Z,22.50
2018-02-12T03:25:50.935Z,21.80
2018-02-12T03:26:26.366Z,22.40
2018-02-12T03:27:01.540Z,22.80
2018-02-12T03:27:36.956Z,22.70
2018-02-12T03:28:12.029Z,23.70
2018-02-12T03:28:49.048Z,23.10
2018-02-12T03:29:24.457Z,23.70
2018-02-12T03:29:59.858Z,24.00
2018-02-12T03:30:35.549Z,22.90
2018-02-12T03:31:10.945Z,23.10
2018-02-12T03:31:46.513Z,22.80
2018-02-12T03:32:21.731Z,24.00
2018-02-12T03:32:57.212Z,23.00
2018-02-12T03:33:32.826Z,22.40
2018-02-12T03:34:08.026Z,22.40
2018-02-12T03:34:44.139Z,21.90
2018-02-12T03:35:19.420Z,23.30
2018-02-12T03:35:54.521Z,23.40
2018-02-12T03:36:29.884Z,23.50
2018-02-12T03:37:05.501Z,23.30
2018-02-12T03:37:40.817Z,24.00
2018-02-12T03:38:16.210Z,23.20
2018-02-12T03:38:51.596Z,22.10
2018-02-12T03:39:27.433Z,22.60
2018-02-12T03:40:02.831Z,23.20
2018-02-12T03:40:40.524Z,23.00
2018-02-12T03:41:15.931Z,21.80
2018-02-12T03:41:51.325Z,22.00
2018-02-12T03:42:26.601Z,22.20
2018-02-12T03:43:02.099Z,21.30
2018-02-12T03:43:37.705Z,21.60
2018-02-12T03:44:13.137Z,22.10
2018-02-12T03:44:48.545Z,21.30
2018-02-12T03:45:24.071Z,21.40
2018-02-12T03:46:00.762Z,21.70
2018-02-12T03:46:36.381Z,21.40
2018-02-12T03:47:12.187Z,20.40
2018-02-12T03:47:47.327Z,19.90
2018-02-12T03:48:22.793Z,20.60
2018-02-12T03:48:57.916Z,21.60
2018-02-12T03:49:33.029Z,21.00
2018-02-12T03:50:08.344Z,20.70
2018-02-12T03:50:47.337Z,20.50
2018-02-12T03:51:22.857Z,20.30
2018-02-12T03:51:58.143Z,20.70
2018-02-12T03:52:33.869Z,20.20
2018-02-12T03:53:09.263Z,19.90
2018-02-12T03:53:45.282Z,19.50
2018-02-12T03:54:20.473Z,19.30
2018-02-12T03:54:56.012Z,19.30
2018-02-12T03:55:31.314Z,19.50
2018-02-12T03:56:06.828Z,19.00
2018-02-12T03:56:42.918Z,18.50
2018-02-12T03:57:18.245Z,19.60
2018-02-12T03:57:53.438Z,19.80
2018-02-12T03:58:28.857Z,18.50
2018-02-12T03:59:04.060Z,17.70
2018-02-12T03:59:39.513Z,17.10
2018-02-12T04:00:15.006Z,16.80
2018-02-12T04:00:52.136Z,16.70
2018-02-12T04:01:27.824Z,16.60
2018-02-12T04:02:03.242Z,17.30
2018-02-12T04:02:38.630Z,17.20
2018-02-12T04:03:13.956Z,16.80
2018-02-12T04:03:49.255Z,16.60
2018-02-12T04:04:24.870Z,17.30
2018-02-12T04:05:00.191Z,17.40
2018-02-12T04:05:37.512Z,16.40
2018-02-12T04:06:12.798Z,15.90
2018-02-12T04:06:48.223Z,16.20
2018-02-12T04:07:23.611Z,16.00
2018-02-12T04:07:59.127Z,15.60
2018-02-12T04:08:34.415Z,16.00
2018-02-12T04:09:09.837Z,15.30
2018-02-12T04:09:45.356Z,15.00
2018-02-12T04:10:20.793Z,15.20
2018-02-12T04:10:56.386Z,15.40
2018-02-12T04:11:31.609Z,15.10
2018-02-12T04:12:06.799Z,14.90
2018-02-12T04:12:42.017Z,14.60
2018-02-12T04:13:17.403Z,14.90
2018-02-12T04:13:52.723Z,15.00
2018-02-12T04:14:28.021Z,14.80
2018-02-12T04:15:03.372Z,14.30
2018-02-12T04:15:39.442Z,14.00
2018-02-12T04:16:14.868Z,14.00
2018-02-12T04:16:49.836Z,15.10
2018-02-12T04:17:25.052Z,14.90
2018-02-12T04:18:00.417Z,14.00
2018-02-12T04:18:35.829Z,14.20
2018-02-12T04:19:11.108Z,14.90
2018-02-12T04:19:46.345Z,15.10
2018-02-12T04:20:21.678Z,15.80
2018-02-12T04:20:58.760Z,16.40
2018-02-12T04:21:34.049Z,15.80
2018-02-12T04:22:09.559Z,15.60
2018-02-12T04:22:45.359Z,15.60
2018-02-12T04:23:20.791Z,14.60
2018-02-12T04:23:55.883Z,15.30
2018-02-12T04:24:31.210Z,16.70
2018-02-12T04:25:06.408Z,16.80
2018-02-12T04:25:42.211Z,15.50
2018-02-12T04:26:17.495Z,16.10
2018-02-12T04:26:52.925Z,15.70
2018-02-12T04:27:28.227Z,14.70
2018-02-12T04:28:03.628Z,15.70
2018-02-12T04:28:41.447Z,16.40
2018-02-12T04:29:16.851Z,15.60
2018-02-12T04:29:52.070Z,15.50
2018-02-12T04:30:27.277Z,15.60
2018-02-12T04:31:06.677Z,16.40
2018-02-12T04:31:41.991Z,15.70
2018-02-12T04:32:17.382Z,15.30
2018-02-12T04:32:52.887Z,15.20
2018-02-12T04:33:28.376Z,15.80
2018-02-12T04:34:03.487Z,14.70
2018-02-12T04:34:39.584Z,14.60
2018-02-12T04:35:14.827Z,15.30
2018-02-12T04:35:50.804Z,15.20
2018-02-12T04:36:26.227Z,14.90
2018-02-12T04:37:01.820Z,14.40
2018-02-12T04:37:37.241Z,14.60
2018-02-12T04:38:12.338Z,14.80
2018-02-12T04:38:47.634Z,15.70
2018-02-12T04:39:23.032Z,15.70
2018-02-12T04:39:58.486Z,14.90
2018-02-12T04:40:33.780Z,14.80
2018-02-12T04:41:08.907Z,15.20
2018-02-12T04:41:45.100Z,13.90
2018-02-12T04:42:20.427Z,13.50
2018-02-12T04:42:55.717Z,15.20
2018-02-12T04:43:31.037Z,14.40
2018-02-12T04:44:06.334Z,14.90
2018-02-12T04:44:42.255Z,14.80
2018-02-12T04:45:17.580Z,14.50
2018-02-12T04:45:56.105Z,14.40
2018-02-12T04:46:31.308Z,14.60
2018-02-12T04:47:06.601Z,14.70
2018-02-12T04:47:42.828Z,14.60
2018-02-12T04:48:18.075Z,14.30
2018-02-12T04:48:53.551Z,14.40
2018-02-12T04:49:29.289Z,14.50
2018-02-12T04:50:04.621Z,14.40
2018-02-12T04:50:40.148Z,13.80
2018-02-12T04:51:15.647Z,13.60
2018-02-12T04:51:51.064Z,14.20
2018-02-12T04:52:26.470Z,14.80
2018-02-12T04:53:01.794Z,13.80
2018-02-12T04:53:37.590Z,12.60
2018-02-12T04:54:13.206Z,13.10
2018-02-12T04:54:49.203Z,13.60
2018-02-12T04:55:24.746Z,12.60
2018-02-12T04:56:00.419Z,12.80
2018-02-12T04:56:35.840Z,13.30
2018-02-12T04:57:11.328Z,13.00
2018-02-12T04:57:46.936Z,12.50
2018-02-12T04:58:22.504Z,12.00
2018-02-12T04:58:57.909Z,12.80
2018-02-12T04:59:33.372Z,12.40
2018-02-12T05:00:08.691Z,11.70
2018-02-12T05:00:48.897Z,12.10
2018-02-12T05:01:24.501Z,12.70
2018-02-12T05:01:59.976Z,12.20
2018-02-12T05:02:35.480Z,11.50
2018-02-12T05:03:10.860Z,11.70
2018-02-12T05:03:46.061Z,11.90
2018-02-12T05:04:21.338Z,11.60
2018-02-12T05:04:56.740Z,11.80
2018-02-12T05:05:31.844Z,11.50
2018-02-12T05:06:07.242Z,12.00
2018-02-12T05:06:43.424Z,12.00
2018-02-12T05:07:18.831Z,11.50
2018-02-12T05:07:54.195Z,11.80
2018-02-12T05:08:29.607Z,11.60
2018-02-12T05:09:04.985Z,12.10
2018-02-12T05:09:42.086Z,12.40
2018-02-12T05:10:17.493Z,12.20
2018-02-12T05:10:55.501Z,11.40
2018-02-12T05:11:30.777Z,10.70
2018-02-12T05:12:06.283Z,11.40
2018-02-12T05:12:41.980Z,11.80
2018-02-12T05:13:17.366Z,11.40
2018-02-12T05:13:53.540Z,12.20
2018-02-12T05:14:28.952Z,11.90
2018-02-12T05:15:04.226Z,11.50
2018-02-12T05:15:42.657Z,11.30
2018-02-12T05:16:17.730Z,11.10
2018-02-12T05:16:52.936Z,11.10
2018-02-12T05:17:28.108Z,10.90
2018-02-12T05:18:03.305Z,11.90
2018-02-12T05:18:38.781Z,12.50
2018-02-12T05:19:14.086Z,11.50
2018-02-12T05:19:51.065Z,11.40
2018-02-12T05:20:26.797Z,11.90
2018-02-12T05:21:03.290Z,11.50
2018-02-12T05:21:38.902Z,11.20
2018-02-12T05:22:13.987Z,11.30
2018-02-12T05:22:50.401Z,10.90
2018-02-12T05:23:26.278Z,10.80
2018-02-12T05:24:01.583Z,11.50
2018-02-12T05:24:36.762Z,11.40
2018-02-12T05:25:13.470Z,11.10
2018-02-12T05:25:49.770Z,10.50
2018-02-12T05:26:25.675Z,10.80
2018-02-12T05:27:02.046Z,11.40
2018-02-12T05:27:37.346Z,10.60
2018-02-12T05:28:12.734Z,10.10
2018-02-12T05:28:48.134Z,11.00
2018-02-12T05:29:23.412Z,11.60
2018-02-12T05:29:58.411Z,11.00
2018-02-12T05:30:33.712Z,11.70
2018-02-12T05:31:09.740Z,12.10
2018-02-12T05:31:44.806Z,11.10
2018-02-12T05:32:20.222Z,11.70
2018-02-12T05:32:55.901Z,11.90
2018-02-12T05:33:31.420Z,11.80
2018-02-12T05:34:06.591Z,12.40
2018-02-12T05:34:42.091Z,12.80
2018-02-12T05:35:17.474Z,12.30
2018-02-12T05:35:56.899Z,12.00
2018-02-12T05:36:32.190Z,12.30
2018-02-12T05:37:08.386Z,12.90
2018-02-12T05:37:44.089Z,12.80
2018-02-12T05:38:19.306Z,13.60
2018-02-12T05:38:55.100Z,13.70
2018-02-12T05:39:30.414Z,13.30
2018-02-12T05:40:05.999Z,13.20
2018-02-12T05:40:41.454Z,13.80
2018-02-12T05:41:16.854Z,14.50
2018-02-12T05:41:52.173Z,14.40
2018-02-12T05:42:27.375Z,14.30
2018-02-12T05:43:02.493Z,14.60
2018-02-12T05:43:37.784Z,14.30
2018-02-12T05:44:13.217Z,13.90
2018-02-12T05:44:48.997Z,13.80
2018-02-12T05:45:24.213Z,14.00
2018-02-12T05:45:59.332Z,14.70
2018-02-12T05:46:34.358Z,14.50
2018-02-12T05:47:09.650Z,14.40
2018-02-12T05:47:44.784Z,14.10
2018-02-12T05:48:19.976Z,13.80
2018-02-12T05:48:55.512Z,14.60
2018-02-12T05:49:30.709Z,15.00
2018-02-12T05:50:05.737Z,15.60
2018-02-12T05:50:41.532Z,15.50
2018-02-12T05:51:16.877Z,14.60
2018-02-12T05:51:52.278Z,14.90
2018-02-12T05:52:27.498Z,14.80
2018-02-12T05:53:02.705Z,15.20
2018-02-12T05:53:38.026Z,15.80
2018-02-12T05:54:13.335Z,17.00
2018-02-12T05:54:48.473Z,16.80
2018-02-12T05:55:23.750Z,16.70
2018-02-12T05:55:59.316Z,16.30
2018-02-12T05:56:34.608Z,16.30
2018-02-12T05:57:10.033Z,16.90
2018-02-12T05:57:46.431Z,17.70
2018-02-12T05:58:21.757Z,17.90
2018-02-12T05:58:56.948Z,16.40
2018-02-12T05:59:32.274Z,16.70
2018-02-12T06:00:07.973Z,16.90
2018-02-12T06:00:45.495Z,15.10
2018-02-12T06:01:22.421Z,15.30
2018-02-12T06:01:57.750Z,17.00
2018-02-12T06:02:33.340Z,16.70
2018-02-12T06:03:08.768Z,16.50
2018-02-12T06:03:45.580Z,16.80
2018-02-12T06:04:20.811Z,17.20
2018-02-12T06:04:56.401Z,16.80
2018-02-12T06:05:32.036Z,16.70
2018-02-12T06:06:10.553Z,17.50
2018-02-12T06:06:46.178Z,17.80
2018-02-12T06:07:21.373Z,18.10
2018-02-12T06:07:56.909Z,17.90
2018-02-12T06:08:32.306Z,17.00
2018-02-12T06:09:07.620Z,17.00
2018-02-12T06:09:42.817Z,17.50
2018-02-12T06:10:18.042Z,17.60
2018-02-12T06:10:54.902Z,16.20
2018-02-12T06:11:30.249Z,17.30
2018-02-12T06:12:05.647Z,17.40
2018-02-12T06:12:44.574Z,18.30
2018-02-12T06:13:19.776Z,18.30
2018-02-12T06:13:55.196Z,17.60
2018-02-12T06:14:30.598Z,16.80
2018-02-12T06:15:06.120Z,16.30
2018-02-12T06:15:41.915Z,17.50
2018-02-12T06:16:17.364Z,18.10
2018-02-12T06:16:54.260Z,17.40
2018-02-12T06:17:29.587Z,16.90
2018-02-12T06:18:05.306Z,16.80
2018-02-12T06:18:40.807Z,17.70
2018-02-12T06:19:15.904Z,18.00
2018-02-12T06:19:51.333Z,16.70
2018-02-12T06:20:26.724Z,17.20
2018-02-12T06:21:02.250Z,17.30
2018-02-12T06:21:37.367Z,17.20
2018-02-12T06:22:12.696Z,16.80
2018-02-12T06:22:48.090Z,16.50
2018-02-12T06:23:23.519Z,16.60
2018-02-12T06:23:58.908Z,16.70
2018-02-12T06:24:34.132Z,16.30
2018-02-12T06:25:09.231Z,16.50
2018-02-12T06:25:46.447Z,16.40
2018-02-12T06:26:22.069Z,16.60
2018-02-12T06:27:00.582Z,16.70
2018-02-12T06:27:36.162Z,15.20
2018-02-12T06:28:11.385Z,15.70
2018-02-12T06:28:47.080Z,16.10
2018-02-12T06:29:22.289Z,16.80
2018-02-12T06:29:57.668Z,16.90
2018-02-12T06:30:33.083Z,15.60
2018-02-12T06:31:13.057Z,14.60
2018-02-12T06:31:48.691Z,15.30
2018-02-12T06:32:24.072Z,15.70
2018-02-12T06:33:02.595Z,15.10
2018-02-12T06:33:41.190Z,14.90
2018-02-12T06:34:16.690Z,14.70
2018-02-12T06:34:54.377Z,15.60
2018-02-12T06:35:32.082Z,16.80
2018-02-12T06:36:11.695Z,16.20
2018-02-12T06:36:47.402Z,16.00
2018-02-12T06:37:22.607Z,16.20
2018-02-12T06:37:57.797Z,14.60
2018-02-12T06:38:33.310Z,14.40
2018-02-12T06:39:08.604Z,15.30
2018-02-12T06:39:44.814Z,15.70
2018-02-12T06:40:20.393Z,14.60
2018-02-12T06:40:56.705Z,15.80
2018-02-12T06:41:31.810Z,15.90
2018-02-12T06:42:06.921Z,15.90
2018-02-12T06:42:42.200Z,15.90
2018-02-12T06:43:17.612Z,15.70
2018-02-12T06:43:52.891Z,15.30
2018-02-12T06:44:28.499Z,15.50
2018-02-12T06:45:03.776Z,15.20
2018-02-12T06:45:40.492Z,15.00
2018-02-12T06:46:16.182Z,15.80
2018-02-12T06:46:51.714Z,16.10
2018-02-12T06:47:27.106Z,15.10
2018-02-12T06:48:02.719Z,14.80
2018-02-12T06:48:38.110Z,14.60
2018-02-12T06:49:13.337Z,15.40
2018-02-12T06:49:48.725Z,15.50
2018-02-12T06:50:24.053Z,14.90
2018-02-12T06:50:59.935Z,13.80
2018-02-12T06:51:35.478Z,13.20
2018-02-12T06:52:10.873Z,14.20
2018-02-12T06:52:46.309Z,14.80
2018-02-12T06:53:21.906Z,14.20
2018-02-12T06:53:57.526Z,14.40
2018-02-12T06:54:32.828Z,14.20
2018-02-12T06:55:08.250Z,13.90
2018-02-12T06:55:46.124Z,13.20
2018-02-12T06:56:20.626Z,13.60
2018-02-12T06:56:56.461Z,13.90
2018-02-12T06:57:32.763Z,13.40
2018-02-12T06:58:08.059Z,12.90
2018-02-12T06:58:43.594Z,13.00
2018-02-12T06:59:18.982Z,14.00
2018-02-12T06:59:56.756Z,14.10
2018-02-12T07:00:32.268Z,13.20
2018-02-12T07:01:07.790Z,13.50
2018-02-12T07:01:43.015Z,13.20
2018-02-12T07:02:18.362Z,12.90
2018-02-12T07:02:53.817Z,13.50
2018-02-12T07:03:29.204Z,13.00
2018-02-12T07:04:04.401Z,13.90
2018-02-12T07:04:40.068Z,13.80
2018-02-12T07:05:17.961Z,13.40
2018-02-12T07:05:56.699Z,12.70
2018-02-12T07:06:34.285Z,13.40
2018-02-12T07:07:09.524Z,13.10
2018-02-12T07:07:49.012Z,12.80
2018-02-12T07:08:27.329Z,11.90
2018-02-12T07:09:02.519Z,11.70
2018-02-12T07:09:37.938Z,11.90
2018-02-12T07:10:13.238Z,11.90
2018-02-12T07:10:49.620Z,13.90
2018-02-12T07:11:27.924Z,13.80
2018-02-12T07:12:03.466Z,11.70
2018-02-12T07:12:42.985Z,12.30
2018-02-12T07:13:18.826Z,12.60
2018-02-12T07:13:57.382Z,12.40
2018-02-12T07:14:32.835Z,11.80
2018-02-12T07:15:28.061Z,11.40
2018-02-12T07:16:03.455Z,11.10
2018-02-12T07:16:38.996Z,10.80
2018-02-12T07:17:14.582Z,10.80
2018-02-12T07:17:53.904Z,11.20
2018-02-12T07:18:29.305Z,10.40
2018-02-12T07:19:04.527Z,10.10
2018-02-12T07:19:39.817Z,10.30
2018-02-12T07:20:15.038Z,10.90
2018-02-12T07:20:50.518Z,10.50
2018-02-12T07:21:25.939Z,10.10
2018-02-12T07:22:04.363Z,9.60
2018-02-12T07:22:39.774Z,10.10
2018-02-12T07:23:14.958Z,10.30
2018-02-12T07:23:50.173Z,10.10
2018-02-12T07:24:25.550Z,10.60
2018-02-12T07:25:01.071Z,10.30
2018-02-12T07:25:36.754Z,10.00
2018-02-12T07:26:12.285Z,10.30
2018-02-12T07:26:47.482Z,10.60
2018-02-12T07:27:22.924Z,10.50
2018-02-12T07:27:58.327Z,10.30
2018-02-12T07:28:33.745Z,10.00
2018-02-12T07:29:08.742Z,9.90
2018-02-12T07:29:44.055Z,10.40
2018-02-12T07:30:19.441Z,10.20
2018-02-12T07:30:54.714Z,10.00
2018-02-12T07:31:29.812Z,10.50
2018-02-12T07:32:05.250Z,10.10
2018-02-12T07:32:40.550Z,9.50
2018-02-12T07:33:15.857Z,9.20
2018-02-12T07:33:51.058Z,9.90
2018-02-12T07:34:26.463Z,10.10
2018-02-12T07:35:01.665Z,10.10
2018-02-12T07:35:36.977Z,9.40
2018-02-12T07:36:12.261Z,10.00
2018-02-12T07:36:47.676Z,9.40
2018-02-12T07:37:22.978Z,10.00
2018-02-12T07:37:58.292Z,9.50
2018-02-12T07:38:33.459Z,10.00
2018-02-12T07:39:08.968Z,10.10